sensor_id;sensor_type;location;lat;lon;timestamp;pressure;altitude;pressure_sealevel;temperature;humidity
18755;BME280;35061;47.664;9.166;2023-08-21T00:01:34;102090.76;;;23.22;73.85
18755;BME280;35061;47.664;9.166;2023-08-21T00:04:03;102091.28;;;23.20;73.88
18755;BME280;35061;47.664;9.166;2023-08-21T00:06:31;102094.74;;;23.19;73.94
18755;BME280;35061;47.664;9.166;2023-08-21T00:09:01;102091.28;;;23.20;74.07
18755;BME280;35061;47.664;9.166;2023-08-21T00:11:29;102095.34;;;23.17;74.32
18755;BME280;35061;47.664;9.166;2023-08-21T00:13:57;102102.27;;;23.14;74.44
18755;BME280;35061;47.664;9.166;2023-08-21T00:16:25;102091.15;;;23.12;74.65
18755;BME280;35061;47.664;9.166;2023-08-21T00:18:54;102091.24;;;23.07;74.85
18755;BME280;35061;47.664;9.166;2023-08-21T00:21:22;102093.89;;;23.05;75.06
18755;BME280;35061;47.664;9.166;2023-08-21T00:23:50;102092.09;;;23.02;75.24
18755;BME280;35061;47.664;9.166;2023-08-21T00:26:18;102098.24;;;22.98;75.51
18755;BME280;35061;47.664;9.166;2023-08-21T00:28:47;102091.64;;;22.97;75.69
18755;BME280;35061;47.664;9.166;2023-08-21T00:31:15;102099.13;;;22.93;75.85
18755;BME280;35061;47.664;9.166;2023-08-21T00:33:43;102090.66;;;22.89;75.92
18755;BME280;35061;47.664;9.166;2023-08-21T00:36:11;102091.77;;;22.86;76.07
18755;BME280;35061;47.664;9.166;2023-08-21T00:38:39;102088.37;;;22.82;76.22
18755;BME280;35061;47.664;9.166;2023-08-21T00:41:08;102088.95;;;22.80;76.39
18755;BME280;35061;47.664;9.166;2023-08-21T00:43:36;102092.62;;;22.81;76.50
18755;BME280;35061;47.664;9.166;2023-08-21T00:46:04;102086.57;;;22.79;76.75
18755;BME280;35061;47.664;9.166;2023-08-21T00:48:33;102092.72;;;22.75;76.93
18755;BME280;35061;47.664;9.166;2023-08-21T00:51:01;102091.93;;;22.75;77.08
18755;BME280;35061;47.664;9.166;2023-08-21T00:53:30;102086.86;;;22.75;77.23
18755;BME280;35061;47.664;9.166;2023-08-21T00:55:58;102090.10;;;22.71;77.50
18755;BME280;35061;47.664;9.166;2023-08-21T00:58:26;102083.01;;;22.67;77.77
18755;BME280;35061;47.664;9.166;2023-08-21T01:00:54;102081.99;;;22.64;78.10
18755;BME280;35061;47.664;9.166;2023-08-21T01:03:23;102088.04;;;22.66;78.17
18755;BME280;35061;47.664;9.166;2023-08-21T01:05:52;102084.09;;;22.64;78.38
18755;BME280;35061;47.664;9.166;2023-08-21T01:08:53;102081.73;;;22.62;78.54
18755;BME280;35061;47.664;9.166;2023-08-21T01:11:45;102083.07;;;22.61;79.15
18755;BME280;35061;47.664;9.166;2023-08-21T01:14:43;102084.41;;;22.60;79.31
18755;BME280;35061;47.664;9.166;2023-08-21T01:17:16;102091.34;;;22.57;79.41
18755;BME280;35061;47.664;9.166;2023-08-21T01:19:48;102090.00;;;22.58;79.13
18755;BME280;35061;47.664;9.166;2023-08-21T01:22:17;102098.83;;;22.52;79.38
18755;BME280;35061;47.664;9.166;2023-08-21T01:24:45;102095.13;;;22.52;79.45
18755;BME280;35061;47.664;9.166;2023-08-21T01:27:13;102100.73;;;22.50;79.82
18755;BME280;35061;47.664;9.166;2023-08-21T01:29:43;102101.25;;;22.48;80.01
18755;BME280;35061;47.664;9.166;2023-08-21T01:32:21;102105.50;;;22.47;80.11
18755;BME280;35061;47.664;9.166;2023-08-21T01:34:54;102102.88;;;22.43;80.76
18755;BME280;35061;47.664;9.166;2023-08-21T01:37:24;102105.57;;;22.41;80.73
18755;BME280;35061;47.664;9.166;2023-08-21T01:39:53;102107.17;;;22.42;80.77
18755;BME280;35061;47.664;9.166;2023-08-21T01:42:21;102108.51;;;22.41;80.83
18755;BME280;35061;47.664;9.166;2023-08-21T01:44:49;102112.73;;;22.40;81.00
18755;BME280;35061;47.664;9.166;2023-08-21T01:47:17;102104.55;;;22.39;81.14
18755;BME280;35061;47.664;9.166;2023-08-21T01:49:45;102098.99;;;22.35;81.25
18755;BME280;35061;47.664;9.166;2023-08-21T01:52:13;102104.03;;;22.35;81.39
18755;BME280;35061;47.664;9.166;2023-08-21T01:54:41;102106.19;;;22.34;81.55
18755;BME280;35061;47.664;9.166;2023-08-21T01:57:10;102108.55;;;22.36;81.76
18755;BME280;35061;47.664;9.166;2023-08-21T01:59:38;102104.59;;;22.33;81.89
18755;BME280;35061;47.664;9.166;2023-08-21T02:02:05;102114.98;;;22.28;82.12
18755;BME280;35061;47.664;9.166;2023-08-21T02:04:34;102106.77;;;22.27;82.30
18755;BME280;35061;47.664;9.166;2023-08-21T02:07:02;102115.54;;;22.27;82.39
18755;BME280;35061;47.664;9.166;2023-08-21T02:09:30;102112.37;;;22.25;82.54
18755;BME280;35061;47.664;9.166;2023-08-21T02:11:58;102108.97;;;22.21;82.67
18755;BME280;35061;47.664;9.166;2023-08-21T02:14:26;102110.05;;;22.17;82.82
18755;BME280;35061;47.664;9.166;2023-08-21T02:16:54;102115.12;;;22.17;83.01
18755;BME280;35061;47.664;9.166;2023-08-21T02:19:22;102113.28;;;22.14;83.22
18755;BME280;35061;47.664;9.166;2023-08-21T02:21:50;102111.95;;;22.15;83.38
18755;BME280;35061;47.664;9.166;2023-08-21T02:24:18;102110.93;;;22.12;83.58
18755;BME280;35061;47.664;9.166;2023-08-21T02:26:46;102110.67;;;22.10;83.67
18755;BME280;35061;47.664;9.166;2023-08-21T02:29:14;102113.61;;;22.10;83.83
18755;BME280;35061;47.664;9.166;2023-08-21T02:31:42;102109.10;;;22.09;83.97
18755;BME280;35061;47.664;9.166;2023-08-21T02:34:10;102110.96;;;22.07;84.10
18755;BME280;35061;47.664;9.166;2023-08-21T02:36:38;102120.25;;;22.05;84.26
18755;BME280;35061;47.664;9.166;2023-08-21T02:39:06;102121.59;;;22.04;84.41
18755;BME280;35061;47.664;9.166;2023-08-21T02:41:34;102120.02;;;22.03;84.46
18755;BME280;35061;47.664;9.166;2023-08-21T02:44:02;102118.98;;;22.00;84.59
18755;BME280;35061;47.664;9.166;2023-08-21T02:46:30;102126.70;;;21.98;84.71
18755;BME280;35061;47.664;9.166;2023-08-21T02:48:58;102120.61;;;21.96;84.92
18755;BME280;35061;47.664;9.166;2023-08-21T02:51:26;102128.30;;;21.99;84.94
18755;BME280;35061;47.664;9.166;2023-08-21T02:53:53;102125.91;;;21.97;85.06
18755;BME280;35061;47.664;9.166;2023-08-21T02:56:21;102121.43;;;21.96;85.17
18755;BME280;35061;47.664;9.166;2023-08-21T02:58:50;102124.86;;;21.95;85.26
18755;BME280;35061;47.664;9.166;2023-08-21T03:01:18;102117.99;;;21.92;85.30
18755;BME280;35061;47.664;9.166;2023-08-21T03:03:46;102122.80;;;21.89;85.34
18755;BME280;35061;47.664;9.166;2023-08-21T03:06:14;102126.79;;;21.86;85.43
18755;BME280;35061;47.664;9.166;2023-08-21T03:08:44;102116.23;;;21.83;85.58
18755;BME280;35061;47.664;9.166;2023-08-21T03:11:12;102121.82;;;21.81;85.64
18755;BME280;35061;47.664;9.166;2023-08-21T03:13:40;102121.55;;;21.79;85.74
18755;BME280;35061;47.664;9.166;2023-08-21T03:16:08;102112.56;;;21.77;85.87
18755;BME280;35061;47.664;9.166;2023-08-21T03:18:57;102111.52;;;21.74;86.02
18755;BME280;35061;47.664;9.166;2023-08-21T03:21:26;102121.33;;;21.71;86.66
18755;BME280;35061;47.664;9.166;2023-08-21T03:23:56;102116.33;;;21.72;86.33
18755;BME280;35061;47.664;9.166;2023-08-21T03:26:28;102113.94;;;21.70;86.40
18755;BME280;35061;47.664;9.166;2023-08-21T03:28:56;102124.01;;;21.69;86.49
18755;BME280;35061;47.664;9.166;2023-08-21T03:31:24;102120.88;;;21.67;86.62
18755;BME280;35061;47.664;9.166;2023-08-21T03:33:52;102122.67;;;21.70;86.63
18755;BME280;35061;47.664;9.166;2023-08-21T03:36:21;102123.72;;;21.73;86.68
18755;BME280;35061;47.664;9.166;2023-08-21T03:38:49;102114.98;;;21.73;86.77
18755;BME280;35061;47.664;9.166;2023-08-21T03:41:17;102114.20;;;21.72;86.79
18755;BME280;35061;47.664;9.166;2023-08-21T03:43:45;102118.13;;;21.75;86.78
18755;BME280;35061;47.664;9.166;2023-08-21T03:46:12;102117.66;;;21.71;87.01
18755;BME280;35061;47.664;9.166;2023-08-21T03:48:40;102116.62;;;21.68;87.07
18755;BME280;35061;47.664;9.166;2023-08-21T03:51:09;102120.09;;;21.67;87.14
18755;BME280;35061;47.664;9.166;2023-08-21T03:53:37;102128.52;;;21.65;87.27
18755;BME280;35061;47.664;9.166;2023-08-21T03:56:05;102125.91;;;21.61;87.39
18755;BME280;35061;47.664;9.166;2023-08-21T03:58:33;102123.03;;;21.55;87.62
18755;BME280;35061;47.664;9.166;2023-08-21T04:01:01;102127.54;;;21.56;87.72
18755;BME280;35061;47.664;9.166;2023-08-21T04:03:29;102134.67;;;21.55;87.84
18755;BME280;35061;47.664;9.166;2023-08-21T04:05:57;102139.74;;;21.55;88.00
18755;BME280;35061;47.664;9.166;2023-08-21T04:08:26;102135.26;;;21.54;88.07
18755;BME280;35061;47.664;9.166;2023-08-21T04:10:54;102136.30;;;21.56;88.03
18755;BME280;35061;47.664;9.166;2023-08-21T04:13:26;102137.35;;;21.53;88.22
18755;BME280;35061;47.664;9.166;2023-08-21T04:15:54;102140.27;;;21.53;88.35
18755;BME280;35061;47.664;9.166;2023-08-21T04:18:24;102136.01;;;21.54;88.38
18755;BME280;35061;47.664;9.166;2023-08-21T04:21:06;102140.27;;;21.53;88.30
18755;BME280;35061;47.664;9.166;2023-08-21T04:23:34;102140.55;;;21.50;88.48
18755;BME280;35061;47.664;9.166;2023-08-21T04:26:03;102141.90;;;21.48;88.45
18755;BME280;35061;47.664;9.166;2023-08-21T04:28:32;102149.84;;;21.48;88.51
18755;BME280;35061;47.664;9.166;2023-08-21T04:31:00;102153.31;;;21.46;88.49
18755;BME280;35061;47.664;9.166;2023-08-21T04:33:28;102156.74;;;21.45;88.57
18755;BME280;35061;47.664;9.166;2023-08-21T04:35:57;102148.02;;;21.45;88.53
18755;BME280;35061;47.664;9.166;2023-08-21T04:38:25;102146.41;;;21.44;88.48
18755;BME280;35061;47.664;9.166;2023-08-21T04:40:53;102149.62;;;21.46;88.51
18755;BME280;35061;47.664;9.166;2023-08-21T04:43:21;102151.71;;;21.45;88.57
18755;BME280;35061;47.664;9.166;2023-08-21T04:45:52;102145.07;;;21.45;88.62
18755;BME280;35061;47.664;9.166;2023-08-21T04:48:23;102158.09;;;21.44;88.82
18755;BME280;35061;47.664;9.166;2023-08-21T04:50:51;102152.82;;;21.42;88.84
18755;BME280;35061;47.664;9.166;2023-08-21T04:53:19;102149.32;;;21.44;88.82
18755;BME280;35061;47.664;9.166;2023-08-21T04:55:47;102150.66;;;21.43;88.71
18755;BME280;35061;47.664;9.166;2023-08-21T04:58:15;102155.17;;;21.44;88.70
18755;BME280;35061;47.664;9.166;2023-08-21T05:00:45;102164.46;;;21.42;88.70
18755;BME280;35061;47.664;9.166;2023-08-21T05:03:13;102159.98;;;21.41;88.66
18755;BME280;35061;47.664;9.166;2023-08-21T05:05:42;102167.14;;;21.40;88.77
18755;BME280;35061;47.664;9.166;2023-08-21T05:08:10;102176.10;;;21.42;88.69
18755;BME280;35061;47.664;9.166;2023-08-21T05:10:37;102176.10;;;21.42;88.58
18755;BME280;35061;47.664;9.166;2023-08-21T05:13:05;102181.14;;;21.42;88.55
18755;BME280;35061;47.664;9.166;2023-08-21T05:15:33;102180.05;;;21.45;88.46
18755;BME280;35061;47.664;9.166;2023-08-21T05:18:01;102178.20;;;21.47;88.27
18755;BME280;35061;47.664;9.166;2023-08-21T05:20:29;102187.97;;;21.50;88.11
18755;BME280;35061;47.664;9.166;2023-08-21T05:22:58;102188.46;;;21.54;87.93
18755;BME280;35061;47.664;9.166;2023-08-21T05:25:26;102182.12;;;21.56;87.77
18755;BME280;35061;47.664;9.166;2023-08-21T05:27:53;102181.82;;;21.59;87.56
18755;BME280;35061;47.664;9.166;2023-08-21T05:30:22;102183.66;;;21.62;87.45
18755;BME280;35061;47.664;9.166;2023-08-21T05:32:49;102188.69;;;21.68;87.18
18755;BME280;35061;47.664;9.166;2023-08-21T05:35:18;102187.61;;;21.71;86.87
18755;BME280;35061;47.664;9.166;2023-08-21T05:37:45;102186.50;;;21.74;86.65
18755;BME280;35061;47.664;9.166;2023-08-21T05:40:13;102188.89;;;21.75;86.43
18755;BME280;35061;47.664;9.166;2023-08-21T05:42:42;102197.36;;;21.79;86.06
18755;BME280;35061;47.664;9.166;2023-08-21T05:45:09;102196.28;;;21.82;85.70
18755;BME280;35061;47.664;9.166;2023-08-21T05:47:38;102192.02;;;21.83;85.42
18755;BME280;35061;47.664;9.166;2023-08-21T05:50:06;102196.21;;;21.88;85.33
18755;BME280;35061;47.664;9.166;2023-08-21T05:52:35;102199.94;;;21.88;85.21
18755;BME280;35061;47.664;9.166;2023-08-21T05:55:10;102200.95;;;21.91;85.18
18755;BME280;35061;47.664;9.166;2023-08-21T05:57:38;102199.61;;;21.92;85.17
18755;BME280;35061;47.664;9.166;2023-08-21T06:00:07;102211.81;;;21.96;85.12
18755;BME280;35061;47.664;9.166;2023-08-21T06:02:38;102212.86;;;21.99;85.13
18755;BME280;35061;47.664;9.166;2023-08-21T06:05:06;102211.19;;;22.03;85.08
18755;BME280;35061;47.664;9.166;2023-08-21T06:07:34;102205.07;;;22.07;85.17
18755;BME280;35061;47.664;9.166;2023-08-21T06:10:02;102211.19;;;22.09;85.20
18755;BME280;35061;47.664;9.166;2023-08-21T06:12:32;102218.84;;;22.12;85.23
18755;BME280;35061;47.664;9.166;2023-08-21T06:15:00;102217.20;;;22.17;85.25
18755;BME280;35061;47.664;9.166;2023-08-21T06:17:28;102215.31;;;22.20;85.27
18755;BME280;35061;47.664;9.166;2023-08-21T06:19:56;102217.14;;;22.23;85.44
18755;BME280;35061;47.664;9.166;2023-08-21T06:22:24;102218.97;;;22.26;85.84
18755;BME280;35061;47.664;9.166;2023-08-21T06:24:52;102221.13;;;22.25;86.59
18755;BME280;35061;47.664;9.166;2023-08-21T06:27:20;102219.20;;;22.28;86.69
18755;BME280;35061;47.664;9.166;2023-08-21T06:29:48;102218.91;;;22.31;87.05
18755;BME280;35061;47.664;9.166;2023-08-21T06:32:16;102219.95;;;22.34;87.52
18755;BME280;35061;47.664;9.166;2023-08-21T06:34:46;102217.53;;;22.38;87.93
18755;BME280;35061;47.664;9.166;2023-08-21T06:37:14;102224.40;;;22.41;90.04
18755;BME280;35061;47.664;9.166;2023-08-21T06:39:42;102223.88;;;22.42;89.65
18755;BME280;35061;47.664;9.166;2023-08-21T06:42:10;102224.34;;;22.47;90.13
18755;BME280;35061;47.664;9.166;2023-08-21T06:44:38;102221.69;;;22.49;90.09
18755;BME280;35061;47.664;9.166;2023-08-21T06:47:06;102228.81;;;22.53;90.65
18755;BME280;35061;47.664;9.166;2023-08-21T06:49:34;102226.69;;;22.54;91.25
18755;BME280;35061;47.664;9.166;2023-08-21T06:52:03;102232.70;;;22.62;90.81
18755;BME280;35061;47.664;9.166;2023-08-21T06:54:31;102229.50;;;22.65;90.91
18755;BME280;35061;47.664;9.166;2023-08-21T06:56:59;102236.04;;;22.71;91.17
18755;BME280;35061;47.664;9.166;2023-08-21T06:59:27;102241.60;;;22.75;91.34
18755;BME280;35061;47.664;9.166;2023-08-21T07:01:55;102230.71;;;22.76;92.04
18755;BME280;35061;47.664;9.166;2023-08-21T07:04:23;102231.20;;;22.80;91.89
18755;BME280;35061;47.664;9.166;2023-08-21T07:06:51;102228.52;;;22.82;92.27
18755;BME280;35061;47.664;9.166;2023-08-21T07:09:19;102231.37;;;22.87;92.24
18755;BME280;35061;47.664;9.166;2023-08-21T07:11:47;102234.21;;;22.93;92.27
18755;BME280;35061;47.664;9.166;2023-08-21T07:14:15;102239.21;;;22.98;91.49
18755;BME280;35061;47.664;9.166;2023-08-21T07:16:44;102236.99;;;23.05;91.12
18755;BME280;35061;47.664;9.166;2023-08-21T07:19:12;102230.55;;;23.12;90.74
18755;BME280;35061;47.664;9.166;2023-08-21T07:21:40;102228.91;;;23.17;90.24
18755;BME280;35061;47.664;9.166;2023-08-21T07:24:08;102232.80;;;23.25;89.36
18755;BME280;35061;47.664;9.166;2023-08-21T07:26:36;102229.83;;;23.31;88.58
18755;BME280;35061;47.664;9.166;2023-08-21T07:29:04;102227.64;;;23.37;88.04
18755;BME280;35061;47.664;9.166;2023-08-21T07:31:32;102232.34;;;23.40;87.45
18755;BME280;35061;47.664;9.166;2023-08-21T07:34:00;102229.37;;;23.46;86.67
18755;BME280;35061;47.664;9.166;2023-08-21T07:36:28;102229.83;;;23.50;85.79
18755;BME280;35061;47.664;9.166;2023-08-21T07:38:56;102238.49;;;23.55;85.47
18755;BME280;35061;47.664;9.166;2023-08-21T07:41:24;102226.20;;;23.63;85.20
18755;BME280;35061;47.664;9.166;2023-08-21T07:43:53;102233.52;;;23.69;84.85
18755;BME280;35061;47.664;9.166;2023-08-21T07:46:21;102234.47;;;23.78;84.68
18755;BME280;35061;47.664;9.166;2023-08-21T07:48:49;102234.60;;;23.86;84.19
18755;BME280;35061;47.664;9.166;2023-08-21T07:51:18;102231.04;;;23.93;83.63
18755;BME280;35061;47.664;9.166;2023-08-21T07:53:46;102238.62;;;24.02;83.39
18755;BME280;35061;47.664;9.166;2023-08-21T07:56:14;102235.84;;;24.09;83.38
18755;BME280;35061;47.664;9.166;2023-08-21T07:58:42;102237.02;;;24.20;83.22
18755;BME280;35061;47.664;9.166;2023-08-21T08:01:09;102239.51;;;24.29;82.79
18755;BME280;35061;47.664;9.166;2023-08-21T08:03:37;102243.37;;;24.37;82.13
18755;BME280;35061;47.664;9.166;2023-08-21T08:06:06;102228.84;;;24.45;81.72
18755;BME280;35061;47.664;9.166;2023-08-21T08:08:34;102235.62;;;24.53;81.33
18755;BME280;35061;47.664;9.166;2023-08-21T08:11:03;102234.63;;;24.64;80.90
18755;BME280;35061;47.664;9.166;2023-08-21T08:13:32;102235.78;;;24.75;80.35
18755;BME280;35061;47.664;9.166;2023-08-21T08:16:00;102231.62;;;24.84;79.99
18755;BME280;35061;47.664;9.166;2023-08-21T08:18:28;102239.64;;;24.97;79.23
18755;BME280;35061;47.664;9.166;2023-08-21T08:20:56;102231.49;;;25.03;78.69
18755;BME280;35061;47.664;9.166;2023-08-21T08:23:24;102232.61;;;25.13;78.17
18755;BME280;35061;47.664;9.166;2023-08-21T08:25:52;102238.04;;;25.22;77.76
18755;BME280;35061;47.664;9.166;2023-08-21T08:28:21;102235.39;;;25.32;77.48
18755;BME280;35061;47.664;9.166;2023-08-21T08:30:49;102236.50;;;25.43;77.22
18755;BME280;35061;47.664;9.166;2023-08-21T08:33:17;102229.63;;;25.54;77.30
18755;BME280;35061;47.664;9.166;2023-08-21T08:35:45;102230.19;;;25.66;77.30
18755;BME280;35061;47.664;9.166;2023-08-21T08:38:13;102228.91;;;25.74;77.25
18755;BME280;35061;47.664;9.166;2023-08-21T08:40:44;102236.07;;;25.87;77.16
18755;BME280;35061;47.664;9.166;2023-08-21T08:43:13;102229.50;;;25.94;76.72
18755;BME280;35061;47.664;9.166;2023-08-21T08:45:41;102231.95;;;26.03;76.31
18755;BME280;35061;47.664;9.166;2023-08-21T08:48:12;102221.66;;;26.10;75.94
18755;BME280;35061;47.664;9.166;2023-08-21T08:50:40;102224.86;;;26.20;75.81
18755;BME280;35061;47.664;9.166;2023-08-21T08:53:09;102218.64;;;26.24;74.84
18755;BME280;35061;47.664;9.166;2023-08-21T08:55:43;102220.77;;;26.23;73.41
18755;BME280;35061;47.664;9.166;2023-08-21T08:58:11;102217.73;;;26.29;73.96
18755;BME280;35061;47.664;9.166;2023-08-21T09:00:39;102222.08;;;26.36;74.20
18755;BME280;35061;47.664;9.166;2023-08-21T09:03:07;102216.84;;;26.42;74.23
18755;BME280;35061;47.664;9.166;2023-08-21T09:05:39;102219.27;;;26.51;74.21
18755;BME280;35061;47.664;9.166;2023-08-21T09:08:12;102216.98;;;26.57;73.74
18755;BME280;35061;47.664;9.166;2023-08-21T09:10:41;102219.30;;;26.59;73.12
18755;BME280;35061;47.664;9.166;2023-08-21T09:13:17;102217.80;;;26.66;73.35
18755;BME280;35061;47.664;9.166;2023-08-21T09:15:53;102217.66;;;26.71;73.37
18755;BME280;35061;47.664;9.166;2023-08-21T09:18:22;102216.68;;;26.77;73.18
18755;BME280;35061;47.664;9.166;2023-08-21T09:20:50;102212.43;;;26.85;73.26
18755;BME280;35061;47.664;9.166;2023-08-21T09:23:19;102208.57;;;26.91;73.06
18755;BME280;35061;47.664;9.166;2023-08-21T09:25:48;102211.55;;;26.98;72.73
18755;BME280;35061;47.664;9.166;2023-08-21T09:28:20;102208.05;;;27.00;71.59
18755;BME280;35061;47.664;9.166;2023-08-21T09:30:51;102207.85;;;26.98;69.95
18755;BME280;35061;47.664;9.166;2023-08-21T09:33:21;102210.80;;;26.98;70.50
18755;BME280;35061;47.664;9.166;2023-08-21T09:35:54;102208.24;;;27.02;70.86
18755;BME280;35061;47.664;9.166;2023-08-21T09:38:22;102197.09;;;27.08;70.89
18755;BME280;35061;47.664;9.166;2023-08-21T09:40:53;102204.98;;;27.13;70.85
18755;BME280;35061;47.664;9.166;2023-08-21T09:43:23;102197.91;;;27.16;70.41
18755;BME280;35061;47.664;9.166;2023-08-21T09:45:53;102191.47;;;27.18;69.83
18755;BME280;35061;47.664;9.166;2023-08-21T09:48:26;102191.86;;;27.22;69.67
18755;BME280;35061;47.664;9.166;2023-08-21T09:50:57;102182.87;;;27.28;70.07
18755;BME280;35061;47.664;9.166;2023-08-21T09:53:27;102183.49;;;27.34;69.88
18755;BME280;35061;47.664;9.166;2023-08-21T09:55:55;102186.27;;;27.40;68.95
18755;BME280;35061;47.664;9.166;2023-08-21T09:58:24;102182.94;;;27.43;68.94
18755;BME280;35061;47.664;9.166;2023-08-21T10:00:56;102185.52;;;27.47;68.33
18755;BME280;35061;47.664;9.166;2023-08-21T10:03:26;102186.11;;;27.53;67.48
18755;BME280;35061;47.664;9.166;2023-08-21T10:05:56;102176.16;;;27.56;67.59
18755;BME280;35061;47.664;9.166;2023-08-21T10:08:26;102171.85;;;27.57;67.14
18755;BME280;35061;47.664;9.166;2023-08-21T10:10:56;102179.86;;;27.57;66.92
18755;BME280;35061;47.664;9.166;2023-08-21T10:13:25;102172.80;;;27.60;67.72
18755;BME280;35061;47.664;9.166;2023-08-21T10:15:53;102173.23;;;27.64;68.08
18755;BME280;35061;47.664;9.166;2023-08-21T10:18:24;102171.66;;;27.71;68.00
18755;BME280;35061;47.664;9.166;2023-08-21T10:20:52;102164.20;;;27.78;67.95
18755;BME280;35061;47.664;9.166;2023-08-21T10:23:29;102164.20;;;27.85;67.92
18755;BME280;35061;47.664;9.166;2023-08-21T10:25:59;102160.50;;;27.85;66.55
18755;BME280;35061;47.664;9.166;2023-08-21T10:28:50;102168.35;;;27.90;66.58
18755;BME280;35061;47.664;9.166;2023-08-21T10:33:59;102170.48;;;27.82;66.37
18755;BME280;35061;47.664;9.166;2023-08-21T10:39:20;102158.15;;;27.76;66.15
18755;BME280;35061;47.664;9.166;2023-08-21T10:42:10;102155.96;;;27.76;66.53
18755;BME280;35061;47.664;9.166;2023-08-21T10:49:52;102157.56;;;27.85;67.22
18755;BME280;35061;47.664;9.166;2023-08-21T10:52:24;102150.30;;;27.94;67.31
18755;BME280;35061;47.664;9.166;2023-08-21T10:54:59;102151.67;;;28.00;67.10
18755;BME280;35061;47.664;9.166;2023-08-21T10:57:29;102150.10;;;28.07;66.64
18755;BME280;35061;47.664;9.166;2023-08-21T11:00:08;102149.91;;;28.13;66.05
18755;BME280;35061;47.664;9.166;2023-08-21T11:02:42;102145.56;;;28.14;65.37
18755;BME280;35061;47.664;9.166;2023-08-21T11:05:12;102142.45;;;28.20;65.59
18755;BME280;35061;47.664;9.166;2023-08-21T11:07:42;102148.93;;;28.26;65.65
18755;BME280;35061;47.664;9.166;2023-08-21T11:10:13;102146.80;;;28.26;64.72
18755;BME280;35061;47.664;9.166;2023-08-21T11:12:49;102144.41;;;28.25;63.53
18755;BME280;35061;47.664;9.166;2023-08-21T11:15:18;102150.53;;;28.19;62.87
18755;BME280;35061;47.664;9.166;2023-08-21T11:17:54;102143.23;;;28.12;62.89
18755;BME280;35061;47.664;9.166;2023-08-21T11:20:22;102148.50;;;28.14;63.86
18755;BME280;35061;47.664;9.166;2023-08-21T11:22:56;102141.27;;;28.15;64.16
18755;BME280;35061;47.664;9.166;2023-08-21T11:25:24;102140.30;;;28.20;63.29
18755;BME280;35061;47.664;9.166;2023-08-21T11:27:53;102138.92;;;28.21;63.11
18755;BME280;35061;47.664;9.166;2023-08-21T11:30:23;102141.67;;;28.27;63.54
18755;BME280;35061;47.664;9.166;2023-08-21T11:33:11;102137.32;;;28.36;63.63
18755;BME280;35061;47.664;9.166;2023-08-21T11:35:41;102138.30;;;28.46;63.47
18755;BME280;35061;47.664;9.166;2023-08-21T11:38:22;102131.63;;;28.53;62.90
18755;BME280;35061;47.664;9.166;2023-08-21T11:40:59;102133.95;;;28.63;61.09
18755;BME280;35061;47.664;9.166;2023-08-21T11:43:37;102130.02;;;28.68;61.42
18755;BME280;35061;47.664;9.166;2023-08-21T11:46:07;102126.43;;;28.77;61.50
18755;BME280;35061;47.664;9.166;2023-08-21T11:48:37;102123.06;;;28.89;61.66
18755;BME280;35061;47.664;9.166;2023-08-21T11:51:09;102124.20;;;29.01;61.08
18755;BME280;35061;47.664;9.166;2023-08-21T11:53:41;102122.96;;;29.12;60.43
18755;BME280;35061;47.664;9.166;2023-08-21T11:56:15;102112.73;;;29.21;60.09
18755;BME280;35061;47.664;9.166;2023-08-21T11:58:45;102119.53;;;29.31;59.75
18755;BME280;35061;47.664;9.166;2023-08-21T12:01:20;102115.93;;;29.41;59.52
18755;BME280;35061;47.664;9.166;2023-08-21T12:03:48;102109.23;;;29.48;59.15
18755;BME280;35061;47.664;9.166;2023-08-21T12:06:23;102120.94;;;29.63;58.84
18755;BME280;35061;47.664;9.166;2023-08-21T12:08:52;102111.39;;;29.73;57.42
18755;BME280;35061;47.664;9.166;2023-08-21T12:11:21;102110.57;;;29.80;56.68
18755;BME280;35061;47.664;9.166;2023-08-21T12:13:50;102098.34;;;29.84;56.06
18755;BME280;35061;47.664;9.166;2023-08-21T12:16:19;102099.81;;;29.92;55.80
18755;BME280;35061;47.664;9.166;2023-08-21T12:18:47;102093.41;;;30.04;55.41
18755;BME280;35061;47.664;9.166;2023-08-21T12:21:15;102089.38;;;30.17;54.66
18755;BME280;35061;47.664;9.166;2023-08-21T12:23:43;102084.97;;;30.26;53.82
18755;BME280;35061;47.664;9.166;2023-08-21T12:26:11;102078.98;;;30.33;53.11
18755;BME280;35061;47.664;9.166;2023-08-21T12:28:39;102073.95;;;30.44;52.65
18755;BME280;35061;47.664;9.166;2023-08-21T12:31:07;102070.12;;;30.51;52.34
18755;BME280;35061;47.664;9.166;2023-08-21T12:33:35;102072.48;;;30.53;52.12
18755;BME280;35061;47.664;9.166;2023-08-21T12:36:03;102073.23;;;30.53;51.76
18755;BME280;35061;47.664;9.166;2023-08-21T12:38:31;102067.51;;;30.55;51.76
18755;BME280;35061;47.664;9.166;2023-08-21T12:41:01;102069.99;;;30.59;51.57
18755;BME280;35061;47.664;9.166;2023-08-21T12:43:30;102063.94;;;30.57;51.29
18755;BME280;35061;47.664;9.166;2023-08-21T12:45:59;102060.05;;;30.54;51.39
18755;BME280;35061;47.664;9.166;2023-08-21T12:48:27;102055.60;;;30.45;51.77
18755;BME280;35061;47.664;9.166;2023-08-21T12:50:55;102061.95;;;30.42;51.73
18755;BME280;35061;47.664;9.166;2023-08-21T12:53:23;102059.07;;;30.34;51.44
18755;BME280;35061;47.664;9.166;2023-08-21T12:55:51;102061.16;;;30.24;51.33
18755;BME280;35061;47.664;9.166;2023-08-21T12:58:19;102066.55;;;30.17;51.65
18755;BME280;35061;47.664;9.166;2023-08-21T13:00:47;102059.59;;;30.05;51.92
18755;BME280;35061;47.664;9.166;2023-08-21T13:03:15;102055.30;;;29.98;52.25
18755;BME280;35061;47.664;9.166;2023-08-21T13:05:43;102062.83;;;29.91;52.62
18755;BME280;35061;47.664;9.166;2023-08-21T13:08:11;102068.39;;;29.87;53.12
18755;BME280;35061;47.664;9.166;2023-08-21T13:10:39;102055.21;;;29.88;53.72
18755;BME280;35061;47.664;9.166;2023-08-21T13:13:07;102060.05;;;29.93;53.81